Time;durP1;ratioP1;P1;durP2;ratioP2;P2;SDS_P1;SDS_P2;PMS_P1;PMS_P2;Temp;Humidity;BMP_temperature;BMP_pressure;BME280_temperature;BME280_humidity;BME280_pressure;Samples;Min_cycle;Max_cycle;Signal;HPM_P1;HPM_P2
2022/05/18 00:00:30;;;;;;;4.43;1.90;;;13.80;75.30;;;;;;5214370;28;20347;-51
2022/05/18 00:03:05;;;;;;;1.97;1.40;;;13.70;75.50;;;;;;5192497;28;20185;-51
2022/05/18 00:05:38;;;;;;;1.87;1.77;;;13.60;75.00;;;;;;5200501;28;20464;-51
2022/05/18 00:08:09;;;;;;;9.63;1.87;;;13.70;75.50;;;;;;5202392;28;21128;-52
2022/05/18 00:10:44;;;;;;;4.80;2.20;;;13.70;75.70;;;;;;5200804;28;20504;-50
2022/05/18 00:13:15;;;;;;;5.60;1.70;;;13.70;75.00;;;;;;5201419;28;20507;-50
2022/05/18 00:15:47;;;;;;;8.30;2.37;;;13.70;75.40;;;;;;5204201;28;20465;-50
2022/05/18 00:18:17;;;;;;;4.73;2.20;;;13.70;73.60;;;;;;5202973;28;20437;-51
2022/05/18 00:20:48;;;;;;;1.80;1.70;;;13.70;73.30;;;;;;5217503;28;20841;-51
2022/05/18 00:23:18;;;;;;;2.13;2.00;;;13.70;73.10;;;;;;5202779;28;20699;-50
2022/05/18 00:25:49;;;;;;;2.27;2.17;;;13.70;73.00;;;;;;5202143;28;20257;-51
2022/05/18 00:28:20;;;;;;;15.10;2.53;;;13.60;71.50;;;;;;5195886;28;20188;-49
2022/05/18 00:30:51;;;;;;;2.30;1.57;;;13.70;71.50;;;;;;5218767;28;20187;-51
2022/05/18 00:33:21;;;;;;;2.60;1.50;;;13.60;71.60;;;;;;5199806;28;20275;-53
2022/05/18 00:35:52;;;;;;;4.43;2.30;;;13.60;70.40;;;;;;5200357;28;20478;-51
2022/05/18 00:38:23;;;;;;;4.00;2.20;;;13.60;70.80;;;;;;5185370;28;20608;-51
2022/05/18 00:40:54;;;;;;;4.93;1.73;;;13.60;70.00;;;;;;5202581;28;20195;-50
2022/05/18 00:43:31;;;;;;;3.33;2.00;;;13.60;70.00;;;;;;5200905;28;20279;-52
2022/05/18 00:46:04;;;;;;;3.43;1.87;;;13.50;69.40;;;;;;5203519;28;20450;-52
2022/05/18 00:48:35;;;;;;;10.70;1.77;;;13.50;69.20;;;;;;5200314;28;20456;-52
2022/05/18 00:51:21;;;;;;;4.00;1.70;;;13.40;68.60;;;;;;5196217;28;20439;-51
2022/05/18 00:54:00;;;;;;;2.30;2.07;;;13.40;68.60;;;;;;5217593;28;20191;-51
2022/05/18 00:56:50;;;;;;;6.70;1.60;;;13.40;68.50;;;;;;5194906;28;20965;-53
2022/05/18 00:59:28;;;;;;;6.23;1.60;;;13.40;67.40;;;;;;5200995;28;20485;-51
2022/05/18 01:01:59;;;;;;;3.70;2.10;;;13.30;67.90;;;;;;5195677;28;20600;-52
2022/05/18 01:04:30;;;;;;;4.50;1.73;;;13.20;67.20;;;;;;5201415;28;20934;-52
2022/05/18 01:07:10;;;;;;;2.83;1.80;;;13.20;66.00;;;;;;5197919;28;20470;-51
2022/05/18 01:09:44;;;;;;;2.70;1.57;;;13.20;65.60;;;;;;5204780;28;20434;-50
2022/05/18 01:12:17;;;;;;;7.13;1.60;;;13.20;65.50;;;;;;5202608;28;20515;-52
2022/05/18 01:14:59;;;;;;;3.00;1.80;;;13.10;64.30;;;;;;5220173;28;20540;-51
2022/05/18 01:17:34;;;;;;;6.00;1.37;;;13.10;63.80;;;;;;5204945;28;20496;-52
2022/05/18 01:20:24;;;;;;;1.93;1.30;;;13.30;63.50;;;;;;5209708;28;20515;-51
2022/05/18 01:23:10;;;;;;;2.20;1.90;;;13.00;62.90;;;;;;5214758;28;20556;-51
2022/05/18 01:26:00;;;;;;;5.60;1.67;;;13.00;62.90;;;;;;5195158;28;20649;-50
2022/05/18 01:28:40;;;;;;;3.07;1.60;;;12.90;63.10;;;;;;5204470;28;20477;-51
2022/05/18 01:31:10;;;;;;;1.60;1.60;;;12.90;62.80;;;;;;5205816;28;20437;-52
2022/05/18 01:33:41;;;;;;;1.17;1.13;;;12.80;62.00;;;;;;5201369;28;20519;-51
2022/05/18 01:36:12;;;;;;;8.93;1.57;;;12.80;61.70;;;;;;5200639;28;20499;-49
2022/05/18 01:38:43;;;;;;;3.93;1.47;;;12.70;62.90;;;;;;5203431;28;20262;-50
2022/05/18 01:41:20;;;;;;;7.13;1.63;;;12.70;62.00;;;;;;5216344;28;21672;-52
2022/05/18 01:43:54;;;;;;;3.30;1.40;;;12.60;61.50;;;;;;5225376;28;20433;-51
2022/05/18 01:46:28;;;;;;;3.40;1.73;;;12.60;61.30;;;;;;5201336;28;20968;-49
2022/05/18 01:48:59;;;;;;;3.53;1.50;;;12.60;61.20;;;;;;5195349;28;20453;-51
2022/05/18 01:51:47;;;;;;;4.63;1.40;;;12.60;60.70;;;;;;5199669;28;20454;-52
2022/05/18 01:54:18;;;;;;;1.47;1.33;;;12.60;60.80;;;;;;5199366;28;20203;-50
2022/05/18 01:56:48;;;;;;;1.80;0.90;;;12.50;59.80;;;;;;5203074;28;20657;-52
2022/05/18 01:59:19;;;;;;;7.43;1.13;;;12.60;59.70;;;;;;5201280;28;20477;-52
2022/05/18 02:01:49;;;;;;;2.43;1.50;;;12.50;58.90;;;;;;5197890;28;20183;-51
2022/05/18 02:04:20;;;;;;;3.90;1.23;;;12.50;59.00;;;;;;5193936;28;20207;-51
2022/05/18 02:06:50;;;;;;;1.20;1.10;;;12.50;58.70;;;;;;5194335;28;20195;-52
2022/05/18 02:09:21;;;;;;;3.93;1.57;;;12.50;58.20;;;;;;5195117;28;20206;-51
2022/05/18 02:11:52;;;;;;;4.50;1.67;;;12.40;57.90;;;;;;5197558;28;20196;-51
2022/05/18 02:14:24;;;;;;;8.40;1.37;;;12.40;57.60;;;;;;5200485;28;20215;-51
2022/05/18 02:16:54;;;;;;;2.80;1.40;;;12.40;57.80;;;;;;5202160;28;20449;-50
2022/05/18 02:19:25;;;;;;;3.20;1.50;;;12.30;57.00;;;;;;5199996;28;20995;-51
2022/05/18 02:21:55;;;;;;;2.60;1.57;;;12.30;56.90;;;;;;5196266;28;20634;-51
2022/05/18 02:24:26;;;;;;;1.67;1.03;;;12.30;56.40;;;;;;5191188;28;20199;-50
2022/05/18 02:26:57;;;;;;;3.83;1.33;;;12.20;56.30;;;;;;5198019;28;20195;-51
2022/05/18 02:29:27;;;;;;;3.10;1.07;;;12.20;56.20;;;;;;5200033;28;20808;-51
2022/05/18 02:31:58;;;;;;;0.80;0.80;;;12.10;55.10;;;;;;5202764;28;20191;-53
2022/05/18 02:34:28;;;;;;;1.40;1.10;;;12.10;54.60;;;;;;5199507;28;20286;-51
2022/05/18 02:36:59;;;;;;;3.60;1.07;;;12.10;54.70;;;;;;5218225;28;20187;-50
2022/05/18 02:39:30;;;;;;;17.60;1.20;;;12.10;55.20;;;;;;5202720;28;20207;-50
2022/05/18 02:42:00;;;;;;;7.13;1.13;;;12.00;54.00;;;;;;5204221;28;20534;-51
2022/05/18 02:44:31;;;;;;;2.80;1.20;;;12.00;53.90;;;;;;5198244;28;20457;-51
2022/05/18 02:47:02;;;;;;;4.00;1.10;;;12.00;53.70;;;;;;5204340;28;20598;-51
2022/05/18 02:49:33;;;;;;;0.97;0.90;;;11.90;53.30;;;;;;5214682;28;20183;-51
2022/05/18 02:52:04;;;;;;;1.13;0.87;;;11.90;53.40;;;;;;5218601;28;20556;-51
2022/05/18 02:57:23;;;;;;;2.60;1.30;;;11.80;53.00;;;;;;5197911;28;20249;-50
2022/05/18 02:59:54;;;;;;;9.83;1.10;;;11.80;53.10;;;;;;5208642;28;20538;-53
2022/05/18 03:02:25;;;;;;;4.53;1.13;;;11.70;53.20;;;;;;5163226;28;20200;-50
2022/05/18 03:04:55;;;;;;;1.73;0.97;;;11.70;52.90;;;;;;5204839;28;20282;-50
2022/05/18 03:07:26;;;;;;;2.37;1.30;;;11.70;52.60;;;;;;5214748;28;20187;-50
2022/05/18 03:09:56;;;;;;;0.70;0.70;;;11.60;52.30;;;;;;5186267;28;20187;-51
2022/05/18 03:12:27;;;;;;;1.57;1.00;;;11.60;52.10;;;;;;5200553;28;20215;-52
2022/05/18 03:14:57;;;;;;;0.80;0.80;;;11.60;52.30;;;;;;5201756;28;20560;-50
2022/05/18 03:17:28;;;;;;;1.00;0.97;;;11.60;51.80;;;;;;5198958;28;20272;-52
2022/05/18 03:19:58;;;;;;;7.00;1.23;;;11.60;52.00;;;;;;5206028;28;20333;-50
2022/05/18 03:25:18;;;;;;;1.20;1.10;;;11.50;51.10;;;;;;5206834;28;20214;-51
2022/05/18 03:27:49;;;;;;;1.00;1.00;;;11.50;50.80;;;;;;5196444;28;20434;-52
2022/05/18 03:30:20;;;;;;;5.00;1.10;;;11.50;50.90;;;;;;5211055;28;20191;-51
2022/05/18 03:32:50;;;;;;;1.63;0.90;;;11.60;50.00;;;;;;5192239;28;20434;-52
2022/05/18 03:35:21;;;;;;;1.93;0.77;;;11.60;49.50;;;;;;5243501;22;20280;-47
2022/05/18 03:37:51;;;;;;;0.90;0.90;;;11.50;49.60;;;;;;5240760;28;20539;-48
2022/05/18 03:40:22;;;;;;;1.10;1.10;;;11.50;49.90;;;;;;5236461;28;20696;-49
2022/05/18 03:42:52;;;;;;;3.33;1.00;;;11.60;49.40;;;;;;5245563;28;20182;-46
2022/05/18 03:45:23;;;;;;;1.13;1.03;;;11.50;49.50;;;;;;5238732;28;20212;-46
2022/05/18 03:47:53;;;;;;;1.10;1.00;;;11.50;49.00;;;;;;5241134;28;20187;-47
2022/05/18 03:50:24;;;;;;;1.60;0.97;;;11.60;49.10;;;;;;5238447;28;20240;-48
2022/05/18 03:52:58;;;;;;;0.70;0.70;;;11.60;49.30;;;;;;5242075;28;20186;-47
2022/05/18 03:55:30;;;;;;;1.70;1.00;;;11.60;49.20;;;;;;5222536;28;20840;-47
2022/05/18 03:58:00;;;;;;;0.80;0.80;;;11.60;49.10;;;;;;5245869;28;20791;-47
2022/05/18 04:00:32;;;;;;;3.00;1.20;;;11.60;48.90;;;;;;5242100;28;20456;-48
2022/05/18 04:03:03;;;;;;;2.80;1.07;;;11.70;48.60;;;;;;5241911;28;20198;-47
2022/05/18 04:05:36;;;;;;;1.10;0.80;;;11.80;48.40;;;;;;5243459;28;20440;-47
2022/05/18 04:08:09;;;;;;;1.10;1.10;;;11.80;48.20;;;;;;5243620;28;20437;-47
2022/05/18 04:10:40;;;;;;;3.93;1.20;;;11.80;48.10;;;;;;5240910;28;20441;-48
2022/05/18 04:13:13;;;;;;;3.03;1.03;;;11.80;48.00;;;;;;5237881;28;20464;-48
2022/05/18 04:15:44;;;;;;;2.73;0.77;;;11.90;48.40;;;;;;5244339;28;20464;-47
2022/05/18 04:18:14;;;;;;;3.00;0.93;;;12.00;47.90;;;;;;5242044;28;20676;-47
2022/05/18 04:20:45;;;;;;;0.70;0.70;;;12.10;47.40;;;;;;5243939;28;20189;-46
2022/05/18 04:23:16;;;;;;;2.83;1.00;;;12.20;47.40;;;;;;5238655;28;20182;-47
2022/05/18 04:25:46;;;;;;;1.20;1.10;;;12.20;47.40;;;;;;5238102;28;20198;-47
2022/05/18 04:28:17;;;;;;;3.70;0.90;;;12.30;47.60;;;;;;5242309;28;20474;-46
2022/05/18 04:30:49;;;;;;;1.20;1.20;;;12.40;47.10;;;;;;5230589;28;20183;-46
2022/05/18 04:33:22;;;;;;;7.37;1.37;;;12.40;47.20;;;;;;5239242;28;20163;-47
2022/05/18 04:35:53;;;;;;;1.03;0.60;;;12.50;46.90;;;;;;5235077;28;20467;-48
2022/05/18 04:38:24;;;;;;;20.10;1.30;;;12.50;46.40;;;;;;5246540;28;20416;-47
2022/05/18 04:40:55;;;;;;;1.07;1.07;;;12.50;46.70;;;;;;5241278;28;20167;-47
2022/05/18 04:43:26;;;;;;;0.90;0.90;;;12.50;47.00;;;;;;5239794;28;20167;-47
2022/05/18 04:45:57;;;;;;;2.20;0.80;;;12.60;47.00;;;;;;5240475;28;20475;-47
2022/05/18 04:48:30;;;;;;;3.10;1.07;;;12.60;46.80;;;;;;5238015;28;20487;-46
2022/05/18 04:51:05;;;;;;;1.37;1.00;;;12.70;46.00;;;;;;5240849;28;20536;-48
2022/05/18 04:53:36;;;;;;;2.23;1.20;;;13.10;46.10;;;;;;5237436;28;20451;-47
2022/05/18 04:56:07;;;;;;;1.40;1.30;;;13.80;44.70;;;;;;5244530;28;20804;-47
2022/05/18 04:58:37;;;;;;;4.43;1.20;;;14.30;43.80;;;;;;5241485;28;20251;-46
2022/05/18 05:01:09;;;;;;;0.90;0.90;;;14.60;42.70;;;;;;5242599;28;20201;-48
2022/05/18 05:03:39;;;;;;;1.33;1.27;;;14.90;42.60;;;;;;5228101;28;20654;-47
2022/05/18 05:06:10;;;;;;;3.23;1.07;;;15.10;41.80;;;;;;5241224;28;20463;-47
2022/05/18 05:08:40;;;;;;;1.20;1.13;;;15.20;41.40;;;;;;5243806;28;20179;-47
2022/05/18 05:11:11;;;;;;;2.30;1.10;;;15.10;41.70;;;;;;5241365;28;20317;-46
2022/05/18 05:13:41;;;;;;;3.17;1.50;;;14.90;41.30;;;;;;5240794;28;20669;-48
2022/05/18 05:16:12;;;;;;;1.17;1.07;;;14.80;41.90;;;;;;5240986;28;20214;-47
2022/05/18 05:18:42;;;;;;;1.43;0.93;;;14.70;42.40;;;;;;5230702;28;20227;-47
2022/05/18 05:21:13;;;;;;;1.00;0.90;;;14.80;43.00;;;;;;5237813;28;20169;-48
2022/05/18 05:23:46;;;;;;;1.30;1.20;;;15.00;42.20;;;;;;5242370;28;20182;-46
2022/05/18 05:26:17;;;;;;;2.60;1.00;;;15.30;41.60;;;;;;5235663;28;20206;-47
2022/05/18 05:28:48;;;;;;;0.93;0.93;;;15.70;42.70;;;;;;5237462;28;20424;-46
2022/05/18 05:31:18;;;;;;;0.93;0.93;;;16.10;40.40;;;;;;5250998;28;20182;-48
2022/05/18 05:33:49;;;;;;;1.00;1.00;;;16.40;40.80;;;;;;5238500;28;20338;-48
2022/05/18 05:36:20;;;;;;;2.23;0.87;;;16.80;39.80;;;;;;5235661;28;20565;-47
2022/05/18 05:38:50;;;;;;;1.43;1.10;;;17.40;38.70;;;;;;5237835;28;20624;-49
2022/05/18 05:41:21;;;;;;;1.37;1.27;;;17.80;37.60;;;;;;5269133;28;20519;-48
2022/05/18 05:43:53;;;;;;;5.20;1.40;;;17.90;37.40;;;;;;5246492;28;20253;-47
2022/05/18 05:46:27;;;;;;;2.50;0.90;;;18.30;37.20;;;;;;5245242;28;20229;-48
2022/05/18 05:48:58;;;;;;;4.40;1.63;;;18.20;37.00;;;;;;5241035;28;20431;-47
2022/05/18 05:51:28;;;;;;;2.00;1.20;;;17.80;36.60;;;;;;5239719;28;20520;-47
2022/05/18 05:53:59;;;;;;;5.70;1.20;;;17.30;38.20;;;;;;5242363;28;20190;-48
2022/05/18 05:56:29;;;;;;;3.83;1.53;;;17.20;38.50;;;;;;5241629;28;20218;-47
2022/05/18 05:59:00;;;;;;;1.90;1.33;;;16.90;38.60;;;;;;5238512;28;20237;-46
2022/05/18 06:01:31;;;;;;;13.60;1.50;;;17.20;39.60;;;;;;5244002;28;20185;-46
2022/05/18 06:04:03;;;;;;;2.13;1.60;;;17.30;38.40;;;;;;5239945;28;20175;-49
2022/05/18 06:06:37;;;;;;;2.93;1.33;;;17.50;38.20;;;;;;5241976;28;20174;-49
2022/05/18 06:09:08;;;;;;;1.00;1.00;;;17.90;37.90;;;;;;5240583;28;20432;-47
2022/05/18 06:11:38;;;;;;;1.53;1.03;;;18.90;37.20;;;;;;5228165;28;20860;-47
2022/05/18 06:14:09;;;;;;;3.53;1.40;;;20.00;35.70;;;;;;5239267;28;20576;-48
2022/05/18 06:16:40;;;;;;;1.57;1.40;;;20.60;33.50;;;;;;5240704;28;20174;-48
2022/05/18 06:19:10;;;;;;;2.13;1.50;;;20.90;33.40;;;;;;5240248;28;20202;-46
2022/05/18 06:21:41;;;;;;;1.93;1.47;;;21.20;33.00;;;;;;5232268;28;20170;-46
2022/05/18 06:24:12;;;;;;;3.50;1.67;;;21.60;32.50;;;;;;5239210;28;20178;-47
2022/05/18 06:26:44;;;;;;;7.23;1.50;;;22.20;31.60;;;;;;5242527;28;20920;-48
2022/05/18 06:29:14;;;;;;;1.73;1.50;;;23.20;31.10;;;;;;5241754;28;20789;-48
2022/05/18 06:31:45;;;;;;;3.73;1.47;;;23.50;30.00;;;;;;5233905;28;20432;-49
2022/05/18 06:34:15;;;;;;;1.70;1.60;;;22.80;30.40;;;;;;5233421;28;20217;-47
2022/05/18 06:36:46;;;;;;;2.03;1.53;;;23.00;30.40;;;;;;5241359;28;20235;-47
2022/05/18 06:39:18;;;;;;;1.83;1.73;;;23.70;30.00;;;;;;5239268;28;20198;-47
2022/05/18 06:41:49;;;;;;;2.60;1.83;;;24.60;29.30;;;;;;5235553;28;20180;-48
2022/05/18 06:44:20;;;;;;;2.93;1.50;;;24.50;28.80;;;;;;5242085;28;20783;-47
2022/05/18 06:46:51;;;;;;;6.73;1.83;;;24.40;28.40;;;;;;5243802;28;20236;-47
2022/05/18 06:49:22;;;;;;;3.23;1.70;;;25.10;28.60;;;;;;5244758;28;20440;-48
2022/05/18 06:51:55;;;;;;;5.60;1.60;;;25.30;28.30;;;;;;5244850;28;21928;-48
2022/05/18 06:54:26;;;;;;;1.50;1.50;;;25.40;27.90;;;;;;5239671;28;20198;-47
2022/05/18 06:56:56;;;;;;;5.23;1.90;;;25.90;28.10;;;;;;5245479;28;20447;-47
2022/05/18 06:59:27;;;;;;;1.67;1.60;;;26.70;27.00;;;;;;5241663;28;20569;-48
2022/05/18 07:01:58;;;;;;;1.20;1.13;;;26.00;27.30;;;;;;5243461;28;20189;-47
2022/05/18 07:04:28;;;;;;;1.73;1.67;;;26.00;27.50;;;;;;5242991;28;20216;-47
2022/05/18 07:07:00;;;;;;;3.17;1.77;;;26.10;27.70;;;;;;5237262;28;20183;-46
2022/05/18 07:09:31;;;;;;;4.87;1.97;;;26.80;27.40;;;;;;5240189;28;20598;-48
2022/05/18 07:12:02;;;;;;;4.67;2.07;;;27.30;26.90;;;;;;5238923;28;20459;-47
2022/05/18 07:14:33;;;;;;;5.20;1.97;;;26.50;27.30;;;;;;5247161;28;20818;-49
2022/05/18 07:17:03;;;;;;;6.30;2.00;;;26.60;27.60;;;;;;5243824;28;20464;-47
2022/05/18 07:19:34;;;;;;;2.07;1.97;;;27.30;27.10;;;;;;5241006;28;20206;-47
2022/05/18 07:22:05;;;;;;;1.77;1.77;;;27.50;26.70;;;;;;5244156;28;20186;-46
2022/05/18 07:24:35;;;;;;;2.17;1.67;;;26.70;27.00;;;;;;5245374;28;20206;-48
2022/05/18 07:27:06;;;;;;;2.00;1.90;;;26.60;27.20;;;;;;5239269;28;20178;-47
2022/05/18 07:29:36;;;;;;;2.20;2.07;;;26.30;27.40;;;;;;5260271;28;20236;-47
2022/05/18 07:32:12;;;;;;;2.63;2.33;;;27.10;27.10;;;;;;5237607;28;20183;-47
2022/05/18 07:34:44;;;;;;;2.53;1.47;;;27.70;26.80;;;;;;5229593;28;20241;-48
2022/05/18 07:37:16;;;;;;;6.93;1.90;;;28.00;26.30;;;;;;5235426;28;20494;-48
2022/05/18 07:39:46;;;;;;;8.67;2.13;;;27.30;27.20;;;;;;5240591;28;20464;-46
2022/05/18 07:42:17;;;;;;;10.80;2.10;;;27.80;27.00;;;;;;5243080;28;20436;-47
2022/05/18 07:44:48;;;;;;;2.97;2.23;;;29.20;26.20;;;;;;5241207;28;20201;-48
2022/05/18 07:47:20;;;;;;;5.90;1.57;;;29.50;25.30;;;;;;5239740;28;20183;-47
2022/05/18 07:49:52;;;;;;;3.43;1.93;;;28.30;26.40;;;;;;5238991;28;20183;-48
2022/05/18 07:52:22;;;;;;;3.27;2.53;;;27.70;27.00;;;;;;5243045;28;20444;-49
2022/05/18 07:54:53;;;;;;;2.10;2.00;;;27.50;27.30;;;;;;5240581;28;20453;-48
2022/05/18 07:57:23;;;;;;;3.27;2.03;;;27.00;28.10;;;;;;5244556;28;20190;-48
2022/05/18 07:59:56;;;;;;;5.03;1.87;;;27.50;27.90;;;;;;5241663;28;20527;-47
2022/05/18 08:02:29;;;;;;;8.37;2.70;;;27.40;27.40;;;;;;5243322;28;20186;-48
2022/05/18 08:04:59;;;;;;;2.10;1.80;;;27.20;28.40;;;;;;5240894;28;20451;-47
2022/05/18 08:07:30;;;;;;;7.10;2.40;;;28.10;28.20;;;;;;5235309;28;20793;-49
2022/05/18 08:15:40;;;;;;;2.83;2.60;;;29.80;26.50;;;;;;5240225;28;20453;-47
2022/05/18 08:18:11;;;;;;;4.27;2.30;;;30.90;25.40;;;;;;5237974;28;20773;-48
2022/05/18 08:20:43;;;;;;;2.70;2.50;;;30.90;24.60;;;;;;5241928;28;22815;-46
2022/05/18 08:23:14;;;;;;;1.50;1.50;;;30.80;25.40;;;;;;5241952;28;20191;-48
2022/05/18 08:25:46;;;;;;;4.73;2.40;;;30.40;25.40;;;;;;5242668;28;20453;-48
2022/05/18 08:28:17;;;;;;;4.23;1.90;;;29.90;25.70;;;;;;5234508;28;20804;-48
2022/05/18 08:30:48;;;;;;;5.93;2.63;;;30.10;26.10;;;;;;5238727;28;20425;-46
2022/05/18 08:33:18;;;;;;;2.87;2.23;;;30.00;26.20;;;;;;5241297;28;20196;-49
2022/05/18 08:35:49;;;;;;;2.13;2.00;;;29.60;25.80;;;;;;5242989;28;20219;-47
2022/05/18 08:38:19;;;;;;;11.93;2.43;;;28.50;26.70;;;;;;5244693;28;20186;-46
2022/05/18 08:40:58;;;;;;;2.20;1.60;;;27.70;27.90;;;;;;5241865;28;23114;-47
2022/05/18 08:43:33;;;;;;;5.97;2.17;;;27.60;28.30;;;;;;5235333;28;20190;-46
2022/05/18 08:46:17;;;;;;;2.80;2.10;;;27.40;28.40;;;;;;5243583;28;20452;-49
2022/05/18 08:49:25;;;;;;;3.20;2.90;;;26.70;29.30;;;;;;5230453;28;20593;-47
2022/05/18 08:52:02;;;;;;;6.23;2.50;;;25.60;31.50;;;;;;5267382;28;20968;-48
2022/05/18 08:54:48;;;;;;;5.37;2.47;;;24.60;33.10;;;;;;5242782;28;20939;-47
2022/05/18 08:57:27;;;;;;;2.33;2.20;;;23.50;34.40;;;;;;5239098;28;20436;-46
2022/05/18 09:00:04;;;;;;;2.43;2.20;;;22.50;35.90;;;;;;5236058;28;20460;-48
2022/05/18 09:02:35;;;;;;;6.63;3.07;;;21.80;37.00;;;;;;5238424;28;20947;-48
2022/05/18 09:05:11;;;;;;;7.90;3.03;;;21.60;38.10;;;;;;5234516;28;20454;-47
2022/05/18 09:08:00;;;;;;;2.57;2.47;;;21.40;38.80;;;;;;5241667;28;20425;-47
2022/05/18 09:11:01;;;;;;;2.90;2.53;;;21.20;39.20;;;;;;5242301;28;21005;-47
2022/05/18 09:13:33;;;;;;;4.57;2.30;;;21.10;40.30;;;;;;5237639;28;20446;-49
2022/05/18 09:16:42;;;;;;;3.07;2.87;;;21.00;41.70;;;;;;5239570;28;20460;-47
2022/05/18 09:19:28;;;;;;;3.20;3.00;;;21.00;41.60;;;;;;5235535;28;20887;-47
2022/05/18 09:22:07;;;;;;;3.40;3.10;;;20.80;41.20;;;;;;5243893;28;20440;-50
2022/05/18 09:24:41;;;;;;;9.40;2.90;;;20.60;42.40;;;;;;5237186;28;20456;-48
2022/05/18 09:27:42;;;;;;;3.37;2.63;;;20.40;43.70;;;;;;5227706;28;20433;-48
2022/05/18 09:30:19;;;;;;;5.43;2.40;;;20.30;43.40;;;;;;5235458;28;20429;-48
2022/05/18 09:33:31;;;;;;;4.53;2.90;;;20.30;44.00;;;;;;5238526;28;20436;-47
2022/05/18 09:36:26;;;;;;;5.20;3.37;;;20.50;43.80;;;;;;5225672;22;20493;-51
2022/05/18 09:39:09;;;;;;;3.90;2.67;;;20.50;43.50;;;;;;5228668;28;20508;-52
2022/05/18 09:41:49;;;;;;;2.60;2.50;;;20.50;44.00;;;;;;5225134;28;20448;-52
2022/05/18 09:44:35;;;;;;;3.57;3.27;;;20.40;44.10;;;;;;5217232;28;20442;-51
2022/05/18 09:47:11;;;;;;;2.60;2.43;;;20.30;44.90;;;;;;5203699;28;21043;-53
2022/05/18 09:49:51;;;;;;;4.23;3.83;;;20.40;45.10;;;;;;5220097;28;20442;-53
2022/05/18 09:52:27;;;;;;;6.53;3.50;;;20.60;44.90;;;;;;5224549;28;20433;-54
2022/05/18 09:55:00;;;;;;;3.80;3.20;;;20.70;45.80;;;;;;5225426;28;20458;-53
2022/05/18 09:57:49;;;;;;;3.10;3.00;;;20.90;45.70;;;;;;5221534;28;20437;-51
2022/05/18 10:00:23;;;;;;;3.07;2.83;;;20.90;46.00;;;;;;5222592;28;20454;-52
2022/05/18 10:08:49;;;;;;;4.07;3.67;;;20.90;46.40;;;;;;5222084;28;20515;-52
2022/05/18 10:11:33;;;;;;;8.23;3.43;;;20.80;47.40;;;;;;5214362;28;20463;-51
2022/05/18 10:14:16;;;;;;;10.93;3.93;;;20.90;47.30;;;;;;5203245;28;20274;-53
2022/05/18 10:16:59;;;;;;;3.50;3.30;;;21.20;47.40;;;;;;5206058;28;20436;-51
2022/05/18 10:19:37;;;;;;;4.13;3.80;;;21.60;47.20;;;;;;5218837;28;20466;-56
2022/05/18 10:22:10;;;;;;;10.40;3.17;;;21.70;46.00;;;;;;5203268;28;20434;-51
2022/05/18 10:24:45;;;;;;;7.23;3.57;;;21.70;45.80;;;;;;5203472;28;20449;-50
2022/05/18 10:27:16;;;;;;;3.03;2.83;;;21.70;45.20;;;;;;5201946;28;20497;-51
2022/05/18 10:30:13;;;;;;;4.87;3.97;;;21.60;45.60;;;;;;5197166;28;20518;-53
2022/05/18 10:33:19;;;;;;;7.90;4.70;;;21.50;47.00;;;;;;5197013;28;20298;-51
2022/05/18 10:35:52;;;;;;;5.13;4.20;;;21.50;47.80;;;;;;5222527;28;20483;-52
2022/05/18 10:38:29;;;;;;;4.00;3.60;;;21.60;46.90;;;;;;5217187;28;20441;-52
2022/05/18 10:41:02;;;;;;;9.50;4.60;;;21.40;46.60;;;;;;5211916;28;20440;-51
2022/05/18 10:43:37;;;;;;;8.43;4.20;;;21.40;48.20;;;;;;5203727;28;20880;-52
2022/05/18 10:46:26;;;;;;;4.00;3.80;;;21.70;48.30;;;;;;5203974;28;20449;-53
2022/05/18 10:49:03;;;;;;;6.00;4.10;;;21.90;46.50;;;;;;5218320;28;20437;-53
2022/05/18 10:51:37;;;;;;;7.87;4.30;;;22.00;47.50;;;;;;5198657;28;20440;-53
2022/05/18 10:54:18;;;;;;;4.63;3.70;;;22.10;47.90;;;;;;5217110;28;20446;-58
2022/05/18 10:56:49;;;;;;;6.20;4.63;;;22.40;48.10;;;;;;5205517;28;20531;-52
2022/05/18 10:59:49;;;;;;;5.77;4.60;;;22.60;47.70;;;;;;5202359;28;21008;-53
2022/05/18 11:02:40;;;;;;;7.30;4.10;;;22.70;47.10;;;;;;5175673;28;20448;-53
2022/05/18 11:05:24;;;;;;;6.37;5.20;;;22.80;47.10;;;;;;5216805;28;20918;-52
2022/05/18 11:07:55;;;;;;;5.10;4.70;;;23.00;47.10;;;;;;5214553;28;20532;-52
2022/05/18 11:10:53;;;;;;;11.50;4.60;;;22.80;46.40;;;;;;5219538;28;20580;-52
2022/05/18 11:14:06;;;;;;;10.97;4.90;;;22.70;45.60;;;;;;5219227;28;20199;-53
2022/05/18 11:16:49;;;;;;;5.03;3.80;;;22.70;46.60;;;;;;5199614;28;21047;-54
2022/05/18 11:19:47;;;;;;;6.97;4.13;;;22.60;45.40;;;;;;5219334;28;20513;-52
2022/05/18 11:22:34;;;;;;;6.27;3.73;;;22.40;45.40;;;;;;5222265;28;20433;-52
2022/05/18 11:25:46;;;;;;;5.83;3.63;;;22.40;45.60;;;;;;5224877;28;20958;-51
2022/05/18 11:28:25;;;;;;;7.40;3.40;;;22.40;45.20;;;;;;5218555;28;20473;-54
2022/05/18 11:31:24;;;;;;;7.77;3.57;;;22.60;44.90;;;;;;5209854;28;20486;-52
2022/05/18 11:34:21;;;;;;;4.80;3.23;;;22.70;44.40;;;;;;5204970;28;20501;-51
2022/05/18 11:37:25;;;;;;;3.40;3.20;;;22.90;44.30;;;;;;5208268;28;20637;-52
2022/05/18 11:40:09;;;;;;;3.30;3.10;;;23.10;43.50;;;;;;5201097;28;20501;-53
2022/05/18 11:46:23;;;;;;;5.23;3.73;;;23.40;42.50;;;;;;5191959;28;20480;-52
2022/05/18 11:49:11;;;;;;;8.40;3.10;;;23.50;42.60;;;;;;5207563;28;20516;-53
2022/05/18 11:52:19;;;;;;;15.23;3.70;;;23.50;42.50;;;;;;5210802;28;20426;-52
2022/05/18 11:55:26;;;;;;;8.60;4.47;;;23.30;42.40;;;;;;5221519;28;20880;-52
2022/05/18 11:58:06;;;;;;;6.47;3.97;;;23.20;43.60;;;;;;5226842;28;20406;-51
2022/05/18 12:01:06;;;;;;;14.20;3.47;;;23.10;43.50;;;;;;5209228;28;20464;-53
2022/05/18 12:03:39;;;;;;;3.70;3.33;;;23.10;44.00;;;;;;5215511;28;20540;-52
2022/05/18 12:06:26;;;;;;;4.57;4.20;;;23.20;44.90;;;;;;5224742;28;20482;-51
2022/05/18 12:09:02;;;;;;;3.53;3.27;;;23.40;44.20;;;;;;5204329;28;20524;-54
2022/05/18 12:11:53;;;;;;;4.20;3.37;;;23.40;44.10;;;;;;5216546;28;20477;-51
2022/05/18 12:14:48;;;;;;;4.87;3.57;;;23.40;44.30;;;;;;5207376;28;20445;-56
2022/05/18 12:17:36;;;;;;;4.37;4.07;;;23.50;44.30;;;;;;5224552;28;20421;-51
2022/05/18 12:20:39;;;;;;;4.10;3.43;;;23.60;44.40;;;;;;5205510;28;20461;-51
2022/05/18 12:23:13;;;;;;;4.67;4.07;;;23.60;45.20;;;;;;5224334;28;20447;-50
2022/05/18 12:25:45;;;;;;;4.53;3.70;;;23.80;44.80;;;;;;5224093;28;20465;-52
2022/05/18 12:28:17;;;;;;;3.77;3.40;;;23.70;44.70;;;;;;5204091;28;20438;-51
2022/05/18 12:30:48;;;;;;;5.00;3.50;;;23.70;44.30;;;;;;5223056;28;20445;-53
2022/05/18 12:33:20;;;;;;;3.77;3.43;;;23.70;43.70;;;;;;5205930;28;20465;-54
2022/05/18 12:36:03;;;;;;;2.93;2.80;;;23.80;43.90;;;;;;5216873;28;20474;-52
2022/05/18 12:39:12;;;;;;;3.27;2.93;;;24.00;43.10;;;;;;5206784;28;20443;-53
2022/05/18 12:42:14;;;;;;;4.60;3.53;;;24.30;43.00;;;;;;5218750;28;20794;-53
2022/05/18 12:44:54;;;;;;;14.20;3.20;;;24.40;42.70;;;;;;5217902;28;20809;-51
2022/05/18 12:47:29;;;;;;;15.80;3.20;;;24.40;42.10;;;;;;5220934;28;20442;-53
2022/05/18 12:50:02;;;;;;;5.30;3.80;;;24.50;41.60;;;;;;5205707;28;20440;-56
2022/05/18 12:52:54;;;;;;;3.20;2.90;;;24.50;41.30;;;;;;5203465;28;20434;-52
2022/05/18 12:55:31;;;;;;;4.07;3.63;;;24.50;41.40;;;;;;5201746;28;20476;-53
2022/05/18 12:58:10;;;;;;;5.93;3.30;;;24.40;41.90;;;;;;5221498;28;20433;-54
2022/05/18 13:01:09;;;;;;;10.43;3.37;;;24.30;41.60;;;;;;5200784;28;20813;-53
2022/05/18 13:04:00;;;;;;;3.67;3.40;;;24.10;42.10;;;;;;5214956;28;20446;-52
2022/05/18 13:06:42;;;;;;;4.57;4.10;;;24.00;42.00;;;;;;5203725;28;20458;-51
2022/05/18 13:09:22;;;;;;;14.70;3.27;;;23.90;42.50;;;;;;5221228;28;20971;-53
2022/05/18 13:12:22;;;;;;;6.60;2.97;;;23.80;43.00;;;;;;5200554;28;20905;-52
2022/05/18 13:14:59;;;;;;;7.50;3.17;;;23.80;43.50;;;;;;5218350;28;20516;-51
2022/05/18 13:17:47;;;;;;;3.37;3.17;;;23.90;43.40;;;;;;5203498;28;20499;-55
2022/05/18 13:20:40;;;;;;;16.97;4.80;;;23.90;43.40;;;;;;5219925;28;20965;-52
2022/05/18 13:23:28;;;;;;;5.93;3.30;;;24.00;43.70;;;;;;5195858;28;20438;-52
2022/05/18 13:26:06;;;;;;;3.03;2.83;;;24.20;43.30;;;;;;5220396;28;20881;-55
2022/05/18 13:28:38;;;;;;;8.70;4.00;;;24.40;43.60;;;;;;5215698;28;20441;-53
2022/05/18 13:31:11;;;;;;;9.20;3.77;;;24.60;43.40;;;;;;5223693;28;20448;-54
2022/05/18 13:33:57;;;;;;;4.77;3.63;;;24.80;43.00;;;;;;5196596;28;20494;-52
2022/05/18 13:36:55;;;;;;;12.60;5.40;;;24.70;43.20;;;;;;5220319;28;20556;-52
2022/05/18 13:39:31;;;;;;;8.13;4.00;;;24.80;43.20;;;;;;5204306;28;20468;-54
2022/05/18 13:42:16;;;;;;;7.17;3.53;;;24.70;42.60;;;;;;5220069;28;20431;-52
2022/05/18 13:44:52;;;;;;;3.20;2.80;;;24.70;43.10;;;;;;5218174;28;20567;-53
2022/05/18 13:47:38;;;;;;;12.83;3.70;;;24.60;42.80;;;;;;5220942;28;20534;-51
2022/05/18 13:50:41;;;;;;;3.47;3.27;;;24.70;43.20;;;;;;5201916;28;20588;-52
2022/05/18 13:53:18;;;;;;;11.87;3.17;;;24.60;43.00;;;;;;5193309;28;20590;-54